createdAt,value
2018-06-20T00:01:03.542Z,57.99
2018-06-20T00:03:32.228Z,58.54
2018-06-20T00:06:00.912Z,58.14
2018-06-20T00:08:29.693Z,58.08
2018-06-20T00:10:58.553Z,58.29
2018-06-20T00:13:27.281Z,58.42
2018-06-20T00:15:56.006Z,58.08
2018-06-20T00:18:24.704Z,58.23
2018-06-20T00:20:53.280Z,58.37
2018-06-20T00:23:21.867Z,58.36
2018-06-20T00:25:50.449Z,58.99
2018-06-20T00:28:19.316Z,58.40
2018-06-20T00:30:47.829Z,58.34
2018-06-20T00:33:16.401Z,58.72
2018-06-20T00:35:44.991Z,58.06
2018-06-20T00:38:13.544Z,58.48
2018-06-20T00:40:42.156Z,58.35
2018-06-20T00:43:10.696Z,57.93
2018-06-20T00:45:39.314Z,58.21
2018-06-20T00:48:07.810Z,58.49
2018-06-20T00:50:36.522Z,59.13
2018-06-20T00:53:05.083Z,58.45
2018-06-20T00:55:44.489Z,59.07
2018-06-20T00:58:12.987Z,58.05
2018-06-20T01:00:41.598Z,59.07
2018-06-20T01:03:10.419Z,58.43
2018-06-20T01:05:38.936Z,59.19
2018-06-20T01:08:07.471Z,58.61
2018-06-20T01:10:36.162Z,58.63
2018-06-20T01:13:04.694Z,58.78
2018-06-20T01:15:33.301Z,59.62
2018-06-20T01:18:01.811Z,58.95
2018-06-20T01:20:30.351Z,59.44
2018-06-20T01:22:58.812Z,58.91
2018-06-20T01:25:27.396Z,59.23
2018-06-20T01:27:55.956Z,59.34
2018-06-20T01:30:24.550Z,58.86
2018-06-20T01:32:53.034Z,59.06
2018-06-20T01:35:21.515Z,59.49
2018-06-20T01:37:50.142Z,59.26
2018-06-20T01:40:18.761Z,58.97
2018-06-20T01:42:47.334Z,59.38
2018-06-20T01:45:15.945Z,59.27
2018-06-20T01:47:44.417Z,58.83
2018-06-20T01:50:12.930Z,59.05
2018-06-20T01:52:41.446Z,58.97
2018-06-20T01:55:10.017Z,59.73
2018-06-20T01:57:38.508Z,59.95
2018-06-20T02:00:07.082Z,59.91
2018-06-20T02:02:35.582Z,59.71
2018-06-20T02:05:04.154Z,59.81
2018-06-20T02:07:32.720Z,59.22
2018-06-20T02:10:01.215Z,59.97
2018-06-20T02:12:29.724Z,59.92
2018-06-20T02:14:58.250Z,60.08
2018-06-20T02:17:26.771Z,60.20
2018-06-20T02:19:55.270Z,59.68
2018-06-20T02:22:23.815Z,59.69
2018-06-20T02:24:52.403Z,60.44
2018-06-20T02:27:21.006Z,60.30
2018-06-20T02:29:49.529Z,59.77
2018-06-20T02:32:18.189Z,59.73
2018-06-20T02:34:46.796Z,60.22
2018-06-20T02:37:15.320Z,60.27
2018-06-20T02:39:43.946Z,60.18
2018-06-20T02:42:12.506Z,60.18
2018-06-20T02:44:41.074Z,59.85
2018-06-20T02:47:09.699Z,59.55
2018-06-20T02:49:38.578Z,60.01
2018-06-20T02:52:07.240Z,59.91
2018-06-20T02:54:35.777Z,58.95
2018-06-20T02:57:04.322Z,59.90
2018-06-20T02:59:32.871Z,59.77
2018-06-20T03:02:01.453Z,59.67
2018-06-20T03:04:30.118Z,59.64
2018-06-20T03:06:58.677Z,59.52
2018-06-20T03:09:32.294Z,59.91
2018-06-20T03:12:01.732Z,59.62
2018-06-20T03:14:30.470Z,59.84
2018-06-20T03:16:59.430Z,59.91
2018-06-20T03:19:29.321Z,59.45
2018-06-20T03:21:58.147Z,59.40
2018-06-20T03:24:26.601Z,59.19
2018-06-20T03:26:55.126Z,59.82
2018-06-20T03:29:23.656Z,59.98
2018-06-20T03:31:52.193Z,60.18
2018-06-20T03:34:20.866Z,59.96
2018-06-20T03:36:49.377Z,60.07
2018-06-20T03:39:17.826Z,59.77
2018-06-20T03:41:47.227Z,60.20
2018-06-20T03:44:15.724Z,59.51
2018-06-20T03:46:44.239Z,59.28
2018-06-20T03:49:12.754Z,59.13
2018-06-20T03:51:41.275Z,59.11
2018-06-20T03:54:09.756Z,58.87
2018-06-20T03:56:38.603Z,58.62
2018-06-20T03:59:07.093Z,59.12
2018-06-20T04:01:35.665Z,59.93
2018-06-20T04:04:04.113Z,59.76
2018-06-20T04:06:32.532Z,59.41
2018-06-20T04:09:01.047Z,59.42
2018-06-20T04:11:29.550Z,60.14
2018-06-20T04:13:58.069Z,59.75
2018-06-20T04:16:26.611Z,59.85
2018-06-20T04:18:55.105Z,59.78
2018-06-20T04:21:23.601Z,59.21
2018-06-20T04:23:52.065Z,58.89
2018-06-20T04:26:20.553Z,59.16
2018-06-20T04:28:49.072Z,58.93
2018-06-20T04:31:17.579Z,58.90
2018-06-20T04:33:46.170Z,59.19
2018-06-20T04:36:14.688Z,58.78
2018-06-20T04:38:43.185Z,58.50
2018-06-20T04:41:11.672Z,58.29
2018-06-20T04:43:40.202Z,58.88
2018-06-20T04:46:08.635Z,59.15
2018-06-20T04:48:37.243Z,58.10
2018-06-20T04:51:05.718Z,58.15
2018-06-20T04:53:34.238Z,57.97
2018-06-20T04:56:02.737Z,58.30
2018-06-20T04:58:31.230Z,58.73
2018-06-20T05:00:59.974Z,58.04
2018-06-20T05:03:28.528Z,57.75
2018-06-20T05:05:57.057Z,57.20
2018-06-20T05:08:25.519Z,57.53
2018-06-20T05:10:54.028Z,57.10
2018-06-20T05:13:22.568Z,57.60
2018-06-20T05:15:51.177Z,57.35
2018-06-20T05:18:19.710Z,57.39
2018-06-20T05:20:48.224Z,56.73
2018-06-20T05:23:16.718Z,56.82
2018-06-20T05:25:46.101Z,56.94
2018-06-20T05:28:14.656Z,56.52
2018-06-20T05:30:47.971Z,57.28
2018-06-20T05:33:17.429Z,57.09
2018-06-20T05:35:45.965Z,56.95
2018-06-20T05:38:16.040Z,57.01
2018-06-20T05:40:44.812Z,56.71
2018-06-20T05:43:14.008Z,55.65
2018-06-20T05:45:42.488Z,56.25
2018-06-20T05:48:11.086Z,55.96
2018-06-20T05:50:39.580Z,55.88
2018-06-20T05:53:08.155Z,55.24
2018-06-20T05:55:36.582Z,56.08
2018-06-20T05:58:05.457Z,55.54
2018-06-20T06:00:34.041Z,55.25
2018-06-20T06:03:02.666Z,55.17
2018-06-20T06:05:31.408Z,55.58
2018-06-20T06:08:05.318Z,54.49
2018-06-20T06:10:34.056Z,55.34
2018-06-20T06:13:02.666Z,55.16
2018-06-20T06:15:31.261Z,55.10
2018-06-20T06:17:59.843Z,53.85
2018-06-20T06:20:28.578Z,54.14
2018-06-20T06:22:57.169Z,53.27
2018-06-20T06:25:25.696Z,54.09
2018-06-20T06:27:54.326Z,54.02
2018-06-20T06:30:22.842Z,53.35
2018-06-20T06:32:51.318Z,52.86
2018-06-20T06:35:19.818Z,54.37
2018-06-20T06:37:48.387Z,54.15
2018-06-20T06:40:17.007Z,53.38
2018-06-20T06:42:45.592Z,52.44
2018-06-20T06:45:14.183Z,51.87
2018-06-20T06:47:42.764Z,51.19
2018-06-20T06:50:11.353Z,51.22
2018-06-20T06:52:39.869Z,49.67
2018-06-20T06:55:08.939Z,49.23
2018-06-20T06:57:37.514Z,50.09
2018-06-20T07:00:06.768Z,49.46
2018-06-20T07:02:35.814Z,50.04
2018-06-20T07:05:04.604Z,50.12
2018-06-20T07:07:33.514Z,49.19
2018-06-20T07:10:02.345Z,48.72
2018-06-20T07:12:31.445Z,46.86
2018-06-20T07:15:00.400Z,47.12
2018-06-20T07:17:30.172Z,47.01
2018-06-20T07:19:59.263Z,47.99
2018-06-20T07:22:29.291Z,48.00
2018-06-20T07:24:57.971Z,46.44
2018-06-20T07:27:26.511Z,45.96
2018-06-20T07:29:55.096Z,46.07
2018-06-20T07:32:23.735Z,45.73
2018-06-20T07:34:52.490Z,45.39
2018-06-20T07:37:21.357Z,45.38
2018-06-20T07:39:50.052Z,45.60
2018-06-20T07:42:18.629Z,45.12
2018-06-20T07:44:47.175Z,44.99
2018-06-20T07:47:15.760Z,45.99
2018-06-20T07:49:44.283Z,46.13
2018-06-20T07:52:13.073Z,46.74
2018-06-20T07:54:41.667Z,44.56
2018-06-20T07:57:10.545Z,43.44
2018-06-20T07:59:44.194Z,41.93
2018-06-20T08:02:29.110Z,39.84
2018-06-20T08:05:02.707Z,40.23
2018-06-20T08:07:36.691Z,39.34
2018-06-20T08:10:10.503Z,38.66
2018-06-20T08:12:44.106Z,36.82
2018-06-20T08:15:17.613Z,35.89
2018-06-20T08:17:51.267Z,33.88
2018-06-20T08:20:22.223Z,32.28
2018-06-20T08:22:50.808Z,32.02
2018-06-20T08:25:19.886Z,32.67
2018-06-20T08:27:48.887Z,33.25
2018-06-20T08:30:18.086Z,32.69
2018-06-20T08:38:51.710Z,28.87
2018-06-20T08:41:20.305Z,28.00
2018-06-20T08:43:49.126Z,27.66
2018-06-20T08:46:17.930Z,27.76
2018-06-20T08:48:46.709Z,27.13
2018-06-20T08:51:15.351Z,26.79
2018-06-20T08:53:44.270Z,25.63
2018-06-20T08:56:13.311Z,26.14
2018-06-20T08:58:42.217Z,26.14
2018-06-20T09:01:15.032Z,25.63
2018-06-20T09:03:44.606Z,24.33
2018-06-20T09:06:19.102Z,25.92
2018-06-20T09:08:53.123Z,25.98
2018-06-20T09:13:27.834Z,26.42
2018-06-20T09:16:01.574Z,27.23
2018-06-20T09:18:35.319Z,27.82
2018-06-20T09:21:03.905Z,27.30
2018-06-20T09:23:32.505Z,26.46
2018-06-20T09:26:01.089Z,26.57
2018-06-20T09:28:29.762Z,26.13
2018-06-20T09:30:58.511Z,27.16
2018-06-20T09:33:27.166Z,26.51
2018-06-20T09:35:55.890Z,25.73
2018-06-20T09:38:24.604Z,26.68
2018-06-20T09:40:53.228Z,25.73
2018-06-20T09:43:21.725Z,26.58
2018-06-20T09:45:56.763Z,26.14
2018-06-20T09:48:25.389Z,25.68
2018-06-20T09:50:56.675Z,26.28
2018-06-20T09:53:25.594Z,25.61
2018-06-20T09:55:54.635Z,24.22
2018-06-20T09:58:23.190Z,23.38
2018-06-20T10:00:57.059Z,23.75
2018-06-20T10:03:30.950Z,23.96
2018-06-20T10:06:04.734Z,24.07
2018-06-20T10:08:38.603Z,23.10
2018-06-20T10:11:12.598Z,22.23
2018-06-20T10:13:44.247Z,20.51
2018-06-20T10:16:13.013Z,20.95
2018-06-20T10:18:41.641Z,22.60
2018-06-20T10:21:10.501Z,23.04
2018-06-20T10:23:39.462Z,23.42
2018-06-20T10:26:08.048Z,24.03
2018-06-20T10:28:36.621Z,25.06
2018-06-20T10:31:05.299Z,25.91
2018-06-20T10:33:35.228Z,25.20
2018-06-20T10:36:03.888Z,25.23
2018-06-20T10:38:32.325Z,23.71
2018-06-20T10:41:01.377Z,22.85
2018-06-20T10:43:30.288Z,23.60
2018-06-20T10:46:04.282Z,21.83
2018-06-20T10:48:33.088Z,20.76
2018-06-20T10:51:01.747Z,20.96
2018-06-20T10:53:30.468Z,19.64
2018-06-20T10:55:59.131Z,20.16
2018-06-20T10:58:32.957Z,20.08
2018-06-20T11:01:07.571Z,20.08
2018-06-20T11:03:41.553Z,20.40
2018-06-20T11:06:15.473Z,19.97
2018-06-20T11:08:49.251Z,19.42
2018-06-20T11:11:23.260Z,18.07
2018-06-20T11:13:52.039Z,18.28
2018-06-20T11:16:20.650Z,17.16
2018-06-20T11:18:52.276Z,16.78
2018-06-20T11:21:24.845Z,16.41
2018-06-20T11:23:53.599Z,17.51
2018-06-20T11:26:22.229Z,17.98
2018-06-20T11:28:50.818Z,18.34
2018-06-20T11:31:19.541Z,20.15
2018-06-20T11:33:48.562Z,20.36
2018-06-20T11:36:17.585Z,21.40
2018-06-20T11:38:46.175Z,23.26
2018-06-20T11:41:15.113Z,23.46
2018-06-20T11:43:43.995Z,24.61
2018-06-20T11:46:18.111Z,24.04
2018-06-20T11:48:46.605Z,24.57
2018-06-20T11:51:15.156Z,24.71
2018-06-20T11:53:43.791Z,26.24
2018-06-20T11:56:12.496Z,26.22
2018-06-20T11:58:46.280Z,26.67
2018-06-20T12:01:20.227Z,27.72
2018-06-20T12:03:54.145Z,27.47
2018-06-20T12:06:27.970Z,27.69
2018-06-20T12:09:01.553Z,28.25
2018-06-20T12:11:35.309Z,27.23
2018-06-20T12:14:08.985Z,28.42
2018-06-20T12:16:38.170Z,29.53
2018-06-20T12:19:11.798Z,28.78
2018-06-20T12:21:45.483Z,29.02
2018-06-20T12:24:19.167Z,29.09
2018-06-20T12:26:52.828Z,28.35
2018-06-20T12:29:26.690Z,29.90
2018-06-20T12:32:00.606Z,28.77
2018-06-20T12:34:34.434Z,29.52
2018-06-20T12:37:07.992Z,30.10
2018-06-20T12:39:35.620Z,29.29
2018-06-20T12:42:09.525Z,29.30
2018-06-20T12:44:57.842Z,28.42
2018-06-20T12:47:29.970Z,29.49
2018-06-20T12:50:00.806Z,29.20
2018-06-20T12:52:29.489Z,29.82
2018-06-20T12:54:58.074Z,28.50
2018-06-20T12:57:26.753Z,29.01
2018-06-20T12:59:55.260Z,29.88
2018-06-20T13:02:23.752Z,29.44
2018-06-20T13:04:52.481Z,28.84
2018-06-20T13:07:21.194Z,29.42
2018-06-20T13:09:49.638Z,29.41
2018-06-20T13:12:19.198Z,29.16
2018-06-20T13:14:47.728Z,28.27
2018-06-20T13:17:16.254Z,29.39
2018-06-20T13:19:44.818Z,29.19
2018-06-20T13:22:13.735Z,29.51
2018-06-20T13:24:42.180Z,28.71
2018-06-20T13:27:15.244Z,29.61
2018-06-20T13:29:44.078Z,29.79
2018-06-20T13:32:17.842Z,29.41
2018-06-20T13:34:51.501Z,29.05
2018-06-20T13:37:25.196Z,29.71
2018-06-20T13:39:58.932Z,30.29
2018-06-20T13:42:32.710Z,29.06
2018-06-20T13:45:06.568Z,28.88
2018-06-20T13:47:40.309Z,28.94
2018-06-20T13:50:08.926Z,28.93
2018-06-20T13:52:37.466Z,30.74
2018-06-20T13:55:06.203Z,30.72
2018-06-20T13:57:34.651Z,30.79
2018-06-20T14:00:03.281Z,30.94
2018-06-20T14:02:31.865Z,31.15
2018-06-20T14:05:00.768Z,30.73
2018-06-20T14:07:29.622Z,29.47
2018-06-20T14:09:58.139Z,30.65
2018-06-20T14:12:26.928Z,30.69
2018-06-20T14:14:55.839Z,30.66
2018-06-20T14:17:24.457Z,30.54
2018-06-20T14:19:58.262Z,30.31
2018-06-20T14:22:27.145Z,29.91
2018-06-20T14:24:55.613Z,30.70
2018-06-20T14:27:24.496Z,31.32
2018-06-20T14:29:53.156Z,31.03
2018-06-20T14:32:27.075Z,32.04
2018-06-20T14:35:00.928Z,31.79
2018-06-20T14:37:34.612Z,30.78
2018-06-20T14:40:08.379Z,31.23
2018-06-20T14:42:42.391Z,30.56
2018-06-20T14:45:16.088Z,30.16
2018-06-20T14:47:44.647Z,29.91
2018-06-20T14:50:13.150Z,30.61
2018-06-20T14:52:41.842Z,30.05
2018-06-20T14:55:10.535Z,30.53
2018-06-20T14:57:39.069Z,30.14
2018-06-20T15:00:07.917Z,30.25
2018-06-20T15:02:36.666Z,30.04
2018-06-20T15:05:05.234Z,29.53
2018-06-20T15:07:33.806Z,30.07
2018-06-20T15:10:02.415Z,30.36
2018-06-20T15:12:31.022Z,30.85
2018-06-20T15:14:59.556Z,29.37
2018-06-20T15:17:29.322Z,29.63
2018-06-20T15:19:58.137Z,29.67
2018-06-20T15:22:26.904Z,29.20
2018-06-20T15:24:55.441Z,29.48
2018-06-20T15:29:30.045Z,29.08
2018-06-20T15:32:03.697Z,29.63
2018-06-20T15:34:37.436Z,29.78
2018-06-20T15:37:10.999Z,29.91
2018-06-20T15:39:39.575Z,29.25
2018-06-20T15:42:08.127Z,28.04
2018-06-20T15:44:36.721Z,28.52
2018-06-20T15:47:05.293Z,27.21
2018-06-20T15:49:34.038Z,28.34
2018-06-20T15:52:02.561Z,27.36
2018-06-20T15:54:31.101Z,28.41
2018-06-20T15:56:59.636Z,28.43
2018-06-20T15:59:28.527Z,27.80
2018-06-20T16:01:57.117Z,27.98
2018-06-20T16:04:25.672Z,27.81
2018-06-20T16:06:54.188Z,28.14
2018-06-20T16:09:27.984Z,28.10
2018-06-20T16:11:57.617Z,28.29
2018-06-20T16:14:26.143Z,28.17
2018-06-20T16:16:54.710Z,27.05
2018-06-20T16:19:28.444Z,27.43
2018-06-20T16:24:08.093Z,27.68
2018-06-20T16:26:41.773Z,28.05
2018-06-20T16:31:20.504Z,28.08
2018-06-20T16:33:48.988Z,28.68
2018-06-20T16:36:17.511Z,28.33
2018-06-20T16:38:46.012Z,28.01
2018-06-20T16:41:14.523Z,28.19
2018-06-20T16:43:43.009Z,27.80
2018-06-20T16:46:11.492Z,28.29
2018-06-20T16:48:40.171Z,28.38
2018-06-20T16:51:08.990Z,28.53
2018-06-20T16:53:38.036Z,28.41
2018-06-20T16:56:06.651Z,28.48
2018-06-20T16:58:35.316Z,28.42
2018-06-20T17:01:08.953Z,28.59
2018-06-20T17:03:37.673Z,28.40
2018-06-20T17:06:06.556Z,28.77
2018-06-20T17:08:35.395Z,29.17
2018-06-20T17:11:04.151Z,28.54
2018-06-20T17:13:37.994Z,28.48
2018-06-20T17:16:11.659Z,28.51
2018-06-20T17:18:45.408Z,28.89
2018-06-20T17:21:19.313Z,29.74
2018-06-20T17:23:53.140Z,30.45
2018-06-20T17:26:27.769Z,30.84
2018-06-20T17:28:56.459Z,30.71
2018-06-20T17:31:25.051Z,30.87
2018-06-20T17:36:28.451Z,31.27
2018-06-20T17:38:56.948Z,31.34
2018-06-20T17:41:25.818Z,31.83
2018-06-20T17:43:54.300Z,32.59
2018-06-20T17:46:22.869Z,32.79
2018-06-20T17:48:51.818Z,32.64
2018-06-20T17:51:20.379Z,32.89
2018-06-20T17:53:48.936Z,32.93
2018-06-20T17:56:17.889Z,32.94
2018-06-20T17:58:46.469Z,32.49
2018-06-20T18:01:15.057Z,32.26
2018-06-20T18:03:43.614Z,31.70
2018-06-20T18:06:17.241Z,31.56
2018-06-20T18:08:51.012Z,31.80
2018-06-20T18:11:24.696Z,31.65
2018-06-20T18:13:58.382Z,32.51
2018-06-20T18:16:32.075Z,32.40
2018-06-20T18:19:00.525Z,33.00
2018-06-20T18:21:29.044Z,34.29
2018-06-20T18:23:57.867Z,33.20
2018-06-20T18:26:26.439Z,33.68
2018-06-20T18:28:54.974Z,33.94
2018-06-20T18:31:23.526Z,33.48
2018-06-20T18:33:52.590Z,34.05
2018-06-20T18:36:21.387Z,33.87
2018-06-20T18:38:50.016Z,34.67
2018-06-20T18:41:18.599Z,35.10
2018-06-20T18:43:47.216Z,35.88
2018-06-20T18:46:15.729Z,34.50
2018-06-20T18:48:44.274Z,35.39
2018-06-20T18:51:13.109Z,34.79
2018-06-20T18:53:41.780Z,35.61
2018-06-20T18:56:10.475Z,35.96
2018-06-20T18:58:44.392Z,35.86
2018-06-20T19:01:18.234Z,35.97
2018-06-20T19:05:53.113Z,36.00
2018-06-20T19:08:26.980Z,35.02
2018-06-20T19:10:55.454Z,35.04
2018-06-20T19:13:24.046Z,36.05
2018-06-20T19:15:52.558Z,35.50
2018-06-20T19:18:21.089Z,36.34
2018-06-20T19:20:49.762Z,35.44
2018-06-20T19:23:18.854Z,35.43
2018-06-20T19:25:47.664Z,35.27
2018-06-20T19:28:16.254Z,35.87
2018-06-20T19:30:45.059Z,36.01
2018-06-20T19:33:13.732Z,35.87
2018-06-20T19:35:42.443Z,37.02
2018-06-20T19:38:11.072Z,36.43
2018-06-20T19:40:39.638Z,36.86
2018-06-20T19:43:08.279Z,37.19
2018-06-20T19:45:37.013Z,37.41
2018-06-20T19:48:05.542Z,36.61
2018-06-20T19:50:34.271Z,37.43
2018-06-20T19:53:02.864Z,37.29
2018-06-20T19:55:31.450Z,36.87
2018-06-20T19:58:00.050Z,38.07
2018-06-20T20:00:28.802Z,37.43
2018-06-20T20:02:57.478Z,38.38
2018-06-20T20:05:29.563Z,37.81
2018-06-20T20:08:05.577Z,38.91
2018-06-20T20:10:34.300Z,38.93
2018-06-20T20:13:03.003Z,38.84
2018-06-20T20:15:31.832Z,38.68
2018-06-20T20:18:00.541Z,38.95
2018-06-20T20:20:29.235Z,38.73
2018-06-20T20:22:57.862Z,39.92
2018-06-20T20:25:26.420Z,40.25
2018-06-20T20:27:55.011Z,40.53
2018-06-20T20:30:23.582Z,40.70
2018-06-20T20:32:52.364Z,40.93
2018-06-20T20:35:21.508Z,41.18
2018-06-20T20:37:50.192Z,40.82
2018-06-20T20:40:18.885Z,41.04
2018-06-20T20:42:47.587Z,41.88
2018-06-20T20:45:16.215Z,41.16
2018-06-20T20:47:44.845Z,41.42
2018-06-20T20:50:13.383Z,41.92
2018-06-20T20:52:41.970Z,42.23
2018-06-20T20:55:10.624Z,42.13
2018-06-20T20:57:39.536Z,42.99
2018-06-20T21:00:08.378Z,43.43
2018-06-20T21:02:37.119Z,42.61
2018-06-20T21:05:05.865Z,42.96
2018-06-20T21:07:34.642Z,43.02
2018-06-20T21:10:03.198Z,43.77
2018-06-20T21:12:32.079Z,43.45
2018-06-20T21:15:00.795Z,43.59
2018-06-20T21:17:29.440Z,44.22
2018-06-20T21:19:58.191Z,43.96
2018-06-20T21:22:26.958Z,44.61
2018-06-20T21:24:55.705Z,44.93
2018-06-20T21:27:24.287Z,45.28
2018-06-20T21:29:53.139Z,45.07
2018-06-20T21:32:21.893Z,44.84
2018-06-20T21:34:51.108Z,45.59
2018-06-20T21:37:19.913Z,44.53
2018-06-20T21:39:48.521Z,45.49
2018-06-20T21:42:17.276Z,45.13
2018-06-20T21:44:45.916Z,45.54
2018-06-20T21:47:14.479Z,45.59
2018-06-20T21:49:43.039Z,46.15
2018-06-20T21:52:11.639Z,46.07
2018-06-20T21:54:40.221Z,45.83
2018-06-20T21:57:08.818Z,45.71
2018-06-20T21:59:37.377Z,45.96
2018-06-20T22:02:05.980Z,47.44
2018-06-20T22:04:34.550Z,46.72
2018-06-20T22:07:03.095Z,47.12
2018-06-20T22:09:31.633Z,46.91
2018-06-20T22:12:00.232Z,47.34
2018-06-20T22:14:28.828Z,47.20
2018-06-20T22:16:57.335Z,47.53
2018-06-20T22:19:25.960Z,46.85
2018-06-20T22:21:54.518Z,47.26
2018-06-20T22:24:23.040Z,47.26
2018-06-20T22:26:51.800Z,47.21
2018-06-20T22:29:20.260Z,48.55
2018-06-20T22:31:48.781Z,48.12
2018-06-20T22:34:17.287Z,48.69
2018-06-20T22:36:45.839Z,47.73
2018-06-20T22:39:14.304Z,48.51
2018-06-20T22:41:42.862Z,48.10
2018-06-20T22:44:11.316Z,48.37
2018-06-20T22:46:39.786Z,48.30
2018-06-20T22:49:08.509Z,48.75
2018-06-20T22:51:37.132Z,49.02
2018-06-20T22:54:05.644Z,49.79
2018-06-20T22:56:34.038Z,49.25
2018-06-20T22:59:02.509Z,49.25
2018-06-20T23:01:31.036Z,49.43
2018-06-20T23:03:59.538Z,50.16
2018-06-20T23:06:28.054Z,50.17
2018-06-20T23:08:56.557Z,50.37
2018-06-20T23:11:25.104Z,50.71
2018-06-20T23:13:53.627Z,50.83
2018-06-20T23:16:22.112Z,50.51
2018-06-20T23:18:50.626Z,51.28
2018-06-20T23:21:19.149Z,50.65
2018-06-20T23:23:47.644Z,50.52
2018-06-20T23:26:16.068Z,51.21
2018-06-20T23:28:44.662Z,51.05
2018-06-20T23:31:13.131Z,50.70
2018-06-20T23:33:41.704Z,50.69
2018-06-20T23:36:10.157Z,51.08
2018-06-20T23:38:38.645Z,52.01
2018-06-20T23:41:07.096Z,51.34
2018-06-20T23:43:35.642Z,51.84
2018-06-20T23:46:04.061Z,51.68
2018-06-20T23:48:34.495Z,50.90
2018-06-20T23:51:02.960Z,51.93
2018-06-20T23:53:31.517Z,51.55
2018-06-20T23:55:59.977Z,51.27
2018-06-20T23:58:29.386Z,51.78
